createdAt,value
2023-04-16T00:01:51.532Z,98323.31
2023-04-16T00:04:18.516Z,98332.72
2023-04-16T00:06:45.269Z,98332.09
2023-04-16T00:09:12.174Z,98330.47
2023-04-16T00:11:38.919Z,98329.06
2023-04-16T00:14:05.885Z,98329.06
2023-04-16T00:16:33.135Z,98331.78
2023-04-16T00:18:59.905Z,98329.19
2023-04-16T00:21:26.764Z,98333.75
2023-04-16T00:23:53.607Z,98340.56
2023-04-16T00:26:20.734Z,98346.81
2023-04-16T00:28:47.461Z,98342.22
2023-04-16T00:31:14.383Z,98347.87
2023-04-16T00:33:41.192Z,98338.31
2023-04-16T00:36:08.064Z,98334.00
2023-04-16T00:38:35.204Z,98341.50
2023-04-16T00:41:02.068Z,98340.69
2023-04-16T00:43:28.884Z,98339.31
2023-04-16T00:45:57.451Z,98340.84
2023-04-16T00:48:24.824Z,98342.72
2023-04-16T00:50:51.738Z,98341.66
2023-04-16T00:53:18.526Z,98342.81
2023-04-16T00:55:46.028Z,98341.19
2023-04-16T00:58:13.142Z,98337.41
2023-04-16T01:00:39.951Z,98332.84
2023-04-16T01:03:06.959Z,98334.22
2023-04-16T01:05:33.857Z,98339.37
2023-04-16T01:08:03.397Z,98335.62
2023-04-16T01:10:31.171Z,98338.69
2023-04-16T01:12:57.979Z,98342.47
2023-04-16T01:15:24.738Z,98335.19
2023-04-16T01:17:51.786Z,98343.03
2023-04-16T01:20:18.770Z,98340.09
2023-04-16T01:22:46.979Z,98341.16
2023-04-16T01:25:15.555Z,98336.81
2023-04-16T01:27:42.347Z,98343.03
2023-04-16T01:30:09.531Z,98342.22
2023-04-16T01:32:36.329Z,98340.56
2023-04-16T01:35:03.335Z,98338.00
2023-04-16T01:37:31.020Z,98347.16
2023-04-16T01:39:58.007Z,98347.97
2023-04-16T01:42:24.749Z,98350.69
2023-04-16T01:44:51.458Z,98350.44
2023-04-16T01:47:18.446Z,98349.13
2023-04-16T01:49:48.217Z,98351.03
2023-04-16T01:52:15.100Z,98353.72
2023-04-16T01:54:42.024Z,98357.47
2023-04-16T01:57:09.261Z,98359.38
2023-04-16T01:59:36.001Z,98355.03
2023-04-16T02:02:11.333Z,98355.84
2023-04-16T02:04:39.535Z,98362.66
2023-04-16T02:07:06.994Z,98362.66
2023-04-16T02:09:38.457Z,98364.75
2023-04-16T02:12:06.403Z,98365.81
2023-04-16T02:14:33.768Z,98357.72
2023-04-16T02:17:01.217Z,98357.16
2023-04-16T02:19:27.943Z,98360.09
2023-04-16T02:21:55.226Z,98363.37
2023-04-16T02:24:22.169Z,98358.22
2023-04-16T02:26:48.899Z,98360.66
2023-04-16T02:29:16.651Z,98365.25
2023-04-16T02:31:43.535Z,98365.50
2023-04-16T02:34:10.639Z,98355.75
2023-04-16T02:36:37.658Z,98357.06
2023-04-16T02:39:05.445Z,98362.69
2023-04-16T02:41:32.227Z,98364.81
2023-04-16T02:43:59.083Z,98366.69
2023-04-16T02:46:25.931Z,98369.16
2023-04-16T02:48:52.824Z,98369.16
2023-04-16T02:51:19.542Z,98365.88
2023-04-16T02:53:46.266Z,98368.56
2023-04-16T02:56:13.230Z,98366.94
2023-04-16T02:58:40.026Z,98369.41
2023-04-16T03:01:06.867Z,98370.78
2023-04-16T03:03:33.746Z,98372.91
2023-04-16T03:06:00.766Z,98377.25
2023-04-16T03:08:27.656Z,98373.50
2023-04-16T03:10:54.360Z,98381.59
2023-04-16T03:13:21.194Z,98385.94
2023-04-16T03:15:49.720Z,98383.81
2023-04-16T03:18:16.812Z,98383.25
2023-04-16T03:20:43.612Z,98384.06
2023-04-16T03:23:10.357Z,98390.28
2023-04-16T03:25:37.157Z,98387.34
2023-04-16T03:28:04.215Z,98388.16
2023-04-16T03:30:31.512Z,98397.66
2023-04-16T03:32:58.413Z,98395.53
2023-04-16T03:35:25.172Z,98395.53
2023-04-16T03:37:52.023Z,98398.81
2023-04-16T03:40:18.751Z,98395.88
2023-04-16T03:42:45.454Z,98395.69
2023-04-16T03:45:12.432Z,98398.13
2023-04-16T03:47:39.423Z,98399.78
2023-04-16T03:50:06.799Z,98403.53
2023-04-16T03:52:33.530Z,98407.31
2023-04-16T03:55:00.286Z,98407.53
2023-04-16T03:57:27.273Z,98404.00
2023-04-16T03:59:54.009Z,98411.28
2023-04-16T04:02:21.271Z,98415.84
2023-04-16T04:04:48.291Z,98409.06
2023-04-16T04:07:16.388Z,98418.22
2023-04-16T04:09:43.260Z,98417.41
2023-04-16T04:12:10.271Z,98415.75
2023-04-16T04:14:40.165Z,98421.97
2023-04-16T04:17:08.143Z,98421.16
2023-04-16T04:19:34.948Z,98429.75
2023-04-16T04:22:01.694Z,98435.38
2023-04-16T04:24:28.420Z,98432.69
2023-04-16T04:26:55.146Z,98425.88
2023-04-16T04:29:21.956Z,98436.69
2023-04-16T04:31:48.755Z,98435.62
2023-04-16T04:34:15.752Z,98443.72
2023-04-16T04:36:42.456Z,98443.16
2023-04-16T04:39:09.535Z,98445.84
2023-04-16T04:41:36.442Z,98450.19
2023-04-16T04:44:03.314Z,98453.13
2023-04-16T04:46:30.070Z,98453.37
2023-04-16T04:48:56.927Z,98456.31
2023-04-16T04:51:23.730Z,98456.31
2023-04-16T04:53:50.642Z,98461.47
2023-04-16T04:56:17.389Z,98468.53
2023-04-16T04:58:44.345Z,98472.03
2023-04-16T05:01:11.221Z,98474.75
2023-04-16T05:03:38.326Z,98473.69
2023-04-16T05:06:05.696Z,98477.19
2023-04-16T05:08:32.485Z,98480.16
2023-04-16T05:10:59.247Z,98483.91
2023-04-16T05:13:26.239Z,98474.75
2023-04-16T05:15:53.127Z,98476.87
2023-04-16T05:18:19.851Z,98473.91
2023-04-16T05:20:46.610Z,98488.00
2023-04-16T05:23:13.342Z,98491.78
2023-04-16T05:25:40.082Z,98489.88
2023-04-16T05:28:07.181Z,98494.81
2023-04-16T05:30:33.954Z,98501.63
2023-04-16T05:33:00.827Z,98498.69
2023-04-16T05:35:27.939Z,98493.53
2023-04-16T05:37:54.738Z,98501.16
2023-04-16T05:40:21.502Z,98502.78
2023-04-16T05:42:48.361Z,98508.44
2023-04-16T05:45:15.233Z,98512.78
2023-04-16T05:47:41.989Z,98508.19
2023-04-16T05:50:09.168Z,98512.06
2023-04-16T05:52:35.920Z,98523.47
2023-04-16T05:55:02.719Z,98525.94
2023-04-16T05:57:30.148Z,98522.44
2023-04-16T05:59:56.973Z,98521.38
2023-04-16T06:02:23.978Z,98535.69
2023-04-16T06:04:50.859Z,98536.50
2023-04-16T06:07:17.578Z,98542.75
2023-04-16T06:09:45.062Z,98543.31
2023-04-16T06:12:11.968Z,98544.97
2023-04-16T06:14:38.738Z,98543.66
2023-04-16T06:17:05.455Z,98554.47
2023-04-16T06:19:32.228Z,98556.94
2023-04-16T06:21:59.193Z,98554.00
2023-04-16T06:24:26.073Z,98561.06
2023-04-16T06:26:52.969Z,98566.81
2023-04-16T06:29:20.412Z,98567.37
2023-04-16T06:31:48.633Z,98564.44
2023-04-16T06:34:16.417Z,98571.28
2023-04-16T06:36:43.261Z,98573.75
2023-04-16T06:39:10.220Z,98570.00
2023-04-16T06:41:37.243Z,98567.91
2023-04-16T06:44:04.023Z,98573.66
2023-04-16T06:46:30.998Z,98570.13
2023-04-16T06:48:57.707Z,98574.47
2023-04-16T06:51:24.541Z,98577.75
2023-04-16T06:53:51.284Z,98578.59
2023-04-16T06:56:18.038Z,98579.41
2023-04-16T06:58:44.776Z,98580.81
2023-04-16T07:01:11.655Z,98577.03
2023-04-16T07:03:38.887Z,98581.72
2023-04-16T07:06:05.977Z,98583.37
2023-04-16T07:08:32.789Z,98575.87
2023-04-16T07:10:59.846Z,98578.09
2023-04-16T07:13:26.676Z,98571.16
2023-04-16T07:15:54.266Z,98585.00
2023-04-16T07:18:21.555Z,98583.94
2023-04-16T07:20:48.392Z,98583.13
2023-04-16T07:23:15.116Z,98585.59
2023-04-16T07:25:42.468Z,98588.88
2023-04-16T07:28:09.302Z,98594.38
2023-04-16T07:30:36.902Z,98594.72
2023-04-16T07:33:04.264Z,98587.22
2023-04-16T07:35:32.070Z,98596.50
2023-04-16T07:37:59.055Z,98592.50
2023-04-16T07:40:26.311Z,98601.78
2023-04-16T07:42:53.097Z,98606.94
2023-04-16T07:45:19.910Z,98607.53
2023-04-16T07:47:46.811Z,98611.63
2023-04-16T07:50:13.675Z,98609.88
2023-04-16T07:52:42.431Z,98608.56
2023-04-16T07:55:09.305Z,98615.13
2023-04-16T07:57:36.092Z,98609.25
2023-04-16T08:00:05.068Z,98612.53
2023-04-16T08:02:32.205Z,98618.28
2023-04-16T08:04:59.634Z,98627.56
2023-04-16T08:07:26.389Z,98623.91
2023-04-16T08:09:53.300Z,98618.25
2023-04-16T08:12:21.082Z,98630.22
2023-04-16T08:14:48.174Z,98631.63
2023-04-16T08:17:15.791Z,98635.25
2023-04-16T08:19:44.853Z,98639.69
2023-04-16T08:22:14.852Z,98636.28
2023-04-16T08:24:41.672Z,98634.47
2023-04-16T08:27:18.482Z,98639.16
2023-04-16T08:29:47.673Z,98641.97
2023-04-16T08:32:14.539Z,98634.97
2023-04-16T08:34:42.156Z,98638.88
2023-04-16T08:37:09.448Z,98640.84
2023-04-16T08:39:36.396Z,98636.81
2023-04-16T08:42:06.165Z,98639.84
2023-04-16T08:44:37.619Z,98629.09
2023-04-16T08:47:09.132Z,98639.19
2023-04-16T08:49:36.931Z,98640.62
2023-04-16T08:52:09.027Z,98635.03
2023-04-16T08:55:02.731Z,98637.81
2023-04-16T08:57:38.809Z,98640.53
2023-04-16T09:00:07.985Z,98643.06
2023-04-16T09:02:35.129Z,98655.66
2023-04-16T09:05:05.167Z,98645.19
2023-04-16T09:07:33.525Z,98648.47
2023-04-16T09:10:01.802Z,98651.25
2023-04-16T09:12:30.357Z,98652.97
2023-04-16T09:14:59.940Z,98654.13
2023-04-16T09:17:27.380Z,98652.81
2023-04-16T09:19:54.969Z,98658.06
2023-04-16T09:22:21.747Z,98646.19
2023-04-16T09:24:48.523Z,98648.72
2023-04-16T09:27:16.592Z,98653.44
2023-04-16T09:29:43.503Z,98651.59
2023-04-16T09:32:12.052Z,98653.06
2023-04-16T09:35:00.684Z,98658.28
2023-04-16T09:37:32.437Z,98655.69
2023-04-16T09:40:04.098Z,98650.31
2023-04-16T09:42:33.534Z,98654.97
2023-04-16T09:45:02.655Z,98652.31
2023-04-16T09:47:44.885Z,98658.66
2023-04-16T09:50:19.864Z,98655.19
2023-04-16T09:52:53.047Z,98663.62
2023-04-16T09:55:23.774Z,98663.12
2023-04-16T09:57:59.000Z,98668.63
2023-04-16T10:00:25.887Z,98672.72
2023-04-16T10:03:04.977Z,98667.84
2023-04-16T10:05:31.790Z,98666.53
2023-04-16T10:08:02.215Z,98670.06
2023-04-16T10:10:29.807Z,98670.66
2023-04-16T10:12:56.623Z,98670.13
2023-04-16T10:15:23.481Z,98667.97
2023-04-16T10:17:51.502Z,98674.53
2023-04-16T10:20:19.237Z,98672.13
2023-04-16T10:22:46.293Z,98674.59
2023-04-16T10:25:13.491Z,98674.91
2023-04-16T10:27:41.410Z,98672.53
2023-04-16T10:30:11.057Z,98671.19
2023-04-16T10:32:38.845Z,98661.97
2023-04-16T10:35:06.314Z,98663.34
2023-04-16T10:37:33.265Z,98672.63
2023-04-16T10:40:00.202Z,98664.19
2023-04-16T10:42:27.620Z,98668.31
2023-04-16T10:44:54.487Z,98666.16
2023-04-16T10:47:24.840Z,98664.03
2023-04-16T10:49:52.027Z,98663.50
2023-04-16T10:52:19.002Z,98664.09
2023-04-16T10:54:48.197Z,98663.56
2023-04-16T10:57:20.100Z,98671.72
2023-04-16T10:59:49.223Z,98671.22
2023-04-16T11:02:19.728Z,98673.69
2023-04-16T11:04:48.506Z,98671.78
2023-04-16T11:07:21.756Z,98666.91
2023-04-16T11:09:51.495Z,98663.66
2023-04-16T11:12:20.641Z,98671.56
2023-04-16T11:14:50.092Z,98662.88
2023-04-16T11:17:17.190Z,98659.31
2023-04-16T11:19:44.481Z,98663.69
2023-04-16T11:22:17.304Z,98659.63
2023-04-16T11:24:47.907Z,98657.56
2023-04-16T11:27:16.202Z,98651.03
2023-04-16T11:29:45.086Z,98661.44
2023-04-16T11:32:21.768Z,98657.41
2023-04-16T11:34:48.634Z,98663.47
2023-04-16T11:37:15.607Z,98663.50
2023-04-16T11:39:49.834Z,98662.47
2023-04-16T11:42:22.657Z,98667.44
2023-04-16T11:44:57.384Z,98663.94
2023-04-16T11:47:25.155Z,98661.78
2023-04-16T11:49:52.281Z,98665.34
2023-04-16T11:52:29.962Z,98668.41
2023-04-16T11:54:57.659Z,98660.50
2023-04-16T11:57:31.582Z,98662.72
2023-04-16T12:00:01.763Z,98656.72
2023-04-16T12:02:42.732Z,98664.91
2023-04-16T12:05:35.804Z,98662.19
2023-04-16T12:08:04.693Z,98669.25
2023-04-16T12:10:35.357Z,98665.72
2023-04-16T12:13:16.477Z,98663.25
2023-04-16T12:15:53.863Z,98667.06
2023-04-16T12:18:23.671Z,98659.16
2023-04-16T12:20:53.368Z,98657.78
2023-04-16T12:23:29.457Z,98663.25
2023-04-16T12:25:59.790Z,98664.31
2023-04-16T12:28:38.497Z,98663.78
2023-04-16T12:31:06.046Z,98662.41
2023-04-16T12:33:32.892Z,98650.38
2023-04-16T12:35:59.862Z,98653.34
2023-04-16T12:38:27.428Z,98661.53
2023-04-16T12:40:57.273Z,98655.53
2023-04-16T12:43:25.120Z,98659.06
2023-04-16T12:45:51.886Z,98653.06
2023-04-16T12:48:18.646Z,98652.25
2023-04-16T12:50:46.309Z,98645.69
2023-04-16T12:53:13.272Z,98652.22
2023-04-16T12:55:40.100Z,98652.22
2023-04-16T12:58:06.949Z,98650.03
2023-04-16T13:00:33.733Z,98653.53
2023-04-16T13:03:00.639Z,98640.69
2023-04-16T13:05:27.665Z,98650.47
2023-04-16T13:07:54.635Z,98645.03
2023-04-16T13:10:22.297Z,98643.66
2023-04-16T13:12:49.268Z,98639.56
2023-04-16T13:15:16.196Z,98639.56
2023-04-16T13:17:43.049Z,98637.34
2023-04-16T13:20:10.646Z,98637.88
2023-04-16T13:22:37.770Z,98634.34
2023-04-16T13:25:05.477Z,98629.16
2023-04-16T13:27:32.711Z,98629.44
2023-04-16T13:29:59.721Z,98630.75
2023-04-16T13:32:26.745Z,98631.00
2023-04-16T13:34:53.698Z,98631.28
2023-04-16T13:37:20.436Z,98621.47
2023-04-16T13:39:47.424Z,98626.66
2023-04-16T13:42:14.443Z,98625.56
2023-04-16T13:44:41.563Z,98631.81
2023-04-16T13:47:09.164Z,98629.94
2023-04-16T13:49:36.329Z,98636.78
2023-04-16T13:52:03.511Z,98646.03
2023-04-16T13:54:30.334Z,98642.78
2023-04-16T13:56:57.333Z,98645.22
2023-04-16T13:59:24.427Z,98648.50
2023-04-16T14:01:51.673Z,98645.22
2023-04-16T14:04:18.955Z,98646.06
2023-04-16T14:06:46.054Z,98644.66
2023-04-16T14:09:13.013Z,98644.41
2023-04-16T14:11:40.159Z,98640.56
2023-04-16T14:14:06.968Z,98642.72
2023-04-16T14:16:34.603Z,98634.00
2023-04-16T14:19:01.694Z,98632.91
2023-04-16T14:21:28.861Z,98633.72
2023-04-16T14:23:55.564Z,98631.00
2023-04-16T14:26:22.720Z,98625.28
2023-04-16T14:28:51.211Z,98626.34
2023-04-16T14:31:20.022Z,98625.28
2023-04-16T14:33:47.175Z,98628.81
2023-04-16T14:36:14.425Z,98630.97
2023-04-16T14:38:43.257Z,98628.25
2023-04-16T14:41:12.652Z,98631.28
2023-04-16T14:43:41.547Z,98624.75
2023-04-16T14:46:08.485Z,98627.53
2023-04-16T14:48:35.339Z,98628.34
2023-04-16T14:51:02.436Z,98626.97
2023-04-16T14:53:30.080Z,98624.25
2023-04-16T14:55:59.386Z,98623.19
2023-04-16T14:58:26.618Z,98629.72
2023-04-16T15:00:53.904Z,98627.00
2023-04-16T15:03:21.271Z,98629.72
2023-04-16T15:05:55.555Z,98631.09
2023-04-16T15:08:23.510Z,98631.91
2023-04-16T15:10:51.381Z,98631.66
2023-04-16T15:13:18.273Z,98638.44
2023-04-16T15:15:45.779Z,98638.44
2023-04-16T15:18:12.670Z,98640.91
2023-04-16T15:20:39.540Z,98642.81
2023-04-16T15:23:08.178Z,98637.34
2023-04-16T15:25:35.116Z,98638.97
2023-04-16T15:28:03.163Z,98638.41
2023-04-16T15:30:31.580Z,98643.03
2023-04-16T15:33:00.177Z,98644.66
2023-04-16T15:35:27.639Z,98644.13
2023-04-16T15:37:55.852Z,98650.13
2023-04-16T15:40:23.410Z,98648.47
2023-04-16T15:42:51.025Z,98651.47
2023-04-16T15:45:19.155Z,98649.22
2023-04-16T15:47:51.641Z,98653.56
2023-04-16T15:50:20.433Z,98649.75
2023-04-16T15:52:49.178Z,98649.19
2023-04-16T15:55:17.891Z,98649.47
2023-04-16T15:57:44.982Z,98648.91
2023-04-16T16:00:17.683Z,98653.53
2023-04-16T16:02:47.480Z,98656.22
2023-04-16T16:05:16.204Z,98666.78
2023-04-16T16:07:44.113Z,98662.44
2023-04-16T16:10:13.272Z,98661.59
2023-04-16T16:12:41.416Z,98668.94
2023-04-16T16:15:09.582Z,98666.50
2023-04-16T16:17:36.977Z,98663.78
2023-04-16T16:20:04.600Z,98658.81
2023-04-16T16:22:32.335Z,98662.63
2023-04-16T16:24:59.467Z,98669.13
2023-04-16T16:27:28.132Z,98662.31
2023-04-16T16:29:55.333Z,98669.66
2023-04-16T16:32:22.662Z,98668.53
2023-04-16T16:34:50.686Z,98666.34
2023-04-16T16:37:17.997Z,98665.81
2023-04-16T16:39:45.326Z,98674.75
2023-04-16T16:42:12.707Z,98668.75
2023-04-16T16:44:40.742Z,98670.41
2023-04-16T16:47:07.754Z,98664.91
2023-04-16T16:49:35.048Z,98667.31
2023-04-16T16:52:02.418Z,98661.88
2023-04-16T16:54:29.518Z,98669.47
2023-04-16T16:56:56.927Z,98672.41
2023-04-16T16:59:24.306Z,98665.28
2023-04-16T17:01:51.130Z,98665.53
2023-04-16T17:04:20.340Z,98662.81
2023-04-16T17:06:47.968Z,98664.41
2023-04-16T17:09:15.270Z,98662.13
2023-04-16T17:11:42.670Z,98670.62
2023-04-16T17:14:10.190Z,98664.84
2023-04-16T17:16:37.727Z,98659.41
2023-04-16T17:19:05.258Z,98675.16
2023-04-16T17:21:35.546Z,98674.59
2023-04-16T17:24:03.284Z,98668.59
2023-04-16T17:26:32.331Z,98668.03
2023-04-16T17:29:01.022Z,98675.87
2023-04-16T17:31:28.764Z,98679.66
2023-04-16T17:33:57.273Z,98681.25
2023-04-16T17:36:25.915Z,98680.44
2023-04-16T17:38:53.952Z,98668.50
2023-04-16T17:41:22.852Z,98676.06
2023-04-16T17:43:51.422Z,98676.34
2023-04-16T17:46:19.086Z,98672.78
2023-04-16T17:48:48.481Z,98675.16
2023-04-16T17:51:16.734Z,98679.78
2023-04-16T17:53:45.040Z,98683.00
2023-04-16T17:56:13.088Z,98682.37
2023-04-16T17:58:40.908Z,98687.31
2023-04-16T18:01:08.389Z,98685.34
2023-04-16T18:03:36.262Z,98693.25
2023-04-16T18:06:04.859Z,98691.34
2023-04-16T18:08:33.361Z,98687.25
2023-04-16T18:11:00.462Z,98692.13
2023-04-16T18:13:27.997Z,98688.03
2023-04-16T18:15:55.532Z,98695.00
2023-04-16T18:18:23.211Z,98694.53
2023-04-16T18:20:50.587Z,98699.59
2023-04-16T18:23:18.081Z,98702.94
2023-04-16T18:25:45.572Z,98702.31
2023-04-16T18:28:14.262Z,98702.84
2023-04-16T18:30:42.694Z,98711.22
2023-04-16T18:35:41.594Z,98713.44
2023-04-16T18:38:09.268Z,98718.06
2023-04-16T18:40:38.095Z,98715.59
2023-04-16T18:43:05.549Z,98726.69
2023-04-16T18:45:34.368Z,98724.00
2023-04-16T18:48:04.158Z,98723.16
2023-04-16T18:50:33.214Z,98718.00
2023-04-16T18:53:01.342Z,98729.09
2023-04-16T18:55:30.656Z,98731.00
2023-04-16T18:57:58.794Z,98725.81
2023-04-16T19:00:27.515Z,98717.09
2023-04-16T19:02:56.283Z,98729.03
2023-04-16T19:05:23.694Z,98731.19
2023-04-16T19:07:50.521Z,98738.50
2023-04-16T19:10:18.042Z,98734.41
2023-04-16T19:12:45.464Z,98728.66
2023-04-16T19:15:12.605Z,98726.16
2023-04-16T19:17:40.003Z,98729.38
2023-04-16T19:20:11.293Z,98726.91
2023-04-16T19:22:39.198Z,98726.09
2023-04-16T19:25:07.897Z,98720.59
2023-04-16T19:27:35.706Z,98720.03
2023-04-16T19:30:04.149Z,98717.81
2023-04-16T19:32:31.684Z,98721.84
2023-04-16T19:34:59.267Z,98724.81
2023-04-16T19:37:27.769Z,98725.31
2023-04-16T19:39:55.533Z,98725.53
2023-04-16T19:42:23.234Z,98726.59
2023-04-16T19:44:51.171Z,98725.53
2023-04-16T19:47:21.092Z,98723.56
2023-04-16T19:49:48.599Z,98720.84
2023-04-16T19:52:17.232Z,98726.78
2023-04-16T19:54:45.056Z,98724.31
2023-04-16T19:57:12.357Z,98721.53
2023-04-16T19:59:40.358Z,98726.38
2023-04-16T20:02:07.794Z,98727.19
2023-04-16T20:04:35.787Z,98718.97
2023-04-16T20:07:03.623Z,98718.72
2023-04-16T20:09:33.955Z,98716.25
2023-04-16T20:12:03.119Z,98712.13
2023-04-16T20:14:31.118Z,98714.63
2023-04-16T20:16:58.044Z,98714.03
2023-04-16T20:19:31.906Z,98713.13
2023-04-16T20:21:59.014Z,98713.94
2023-04-16T20:24:27.052Z,98710.41
2023-04-16T20:26:57.456Z,98715.59
2023-04-16T20:29:24.368Z,98715.00
2023-04-16T20:31:51.191Z,98724.47
2023-04-16T20:34:18.562Z,98724.78
2023-04-16T20:36:46.060Z,98722.31
2023-04-16T20:39:13.579Z,98716.09
2023-04-16T20:41:44.187Z,98720.13
2023-04-16T20:44:19.268Z,98718.47
2023-04-16T20:46:49.789Z,98714.94
2023-04-16T20:49:18.930Z,98716.00
2023-04-16T20:51:46.112Z,98718.97
2023-04-16T20:54:12.970Z,98715.69
2023-04-16T20:56:39.890Z,98719.47
2023-04-16T20:59:06.717Z,98716.50
2023-04-16T21:01:33.943Z,98712.97
2023-04-16T21:04:01.572Z,98714.28
2023-04-16T21:06:32.824Z,98711.22
2023-04-16T21:08:59.819Z,98713.91
2023-04-16T21:11:27.154Z,98701.91
2023-04-16T21:13:53.924Z,98708.97
2023-04-16T21:16:20.812Z,98703.78
2023-04-16T21:18:47.572Z,98700.50
2023-04-16T21:21:14.583Z,98707.47
2023-04-16T21:23:41.314Z,98707.00
2023-04-16T21:26:08.063Z,98701.81
2023-04-16T21:28:34.861Z,98697.47
2023-04-16T21:31:01.721Z,98697.72
2023-04-16T21:33:28.798Z,98690.87
2023-04-16T21:35:55.682Z,98690.66
2023-04-16T21:38:22.772Z,98687.59
2023-04-16T21:40:51.308Z,98684.41
2023-04-16T21:43:18.061Z,98681.13
2023-04-16T21:45:44.790Z,98674.63
2023-04-16T21:48:12.248Z,98680.28
2023-04-16T21:50:39.055Z,98675.37
2023-04-16T21:53:06.735Z,98668.88
2023-04-16T21:55:34.810Z,98678.91
2023-04-16T21:58:02.591Z,98676.19
2023-04-16T22:00:29.836Z,98680.47
2023-04-16T22:02:56.777Z,98678.31
2023-04-16T22:05:24.162Z,98674.22
2023-04-16T22:07:51.199Z,98681.84
2023-04-16T22:10:18.372Z,98676.69
2023-04-16T22:12:45.816Z,98677.75
2023-04-16T22:15:13.913Z,98670.44
2023-04-16T22:17:40.907Z,98677.75
2023-04-16T22:20:14.808Z,98670.06
2023-04-16T22:22:42.706Z,98669.50
2023-04-16T22:25:10.079Z,98665.72
2023-04-16T22:27:37.454Z,98664.00
2023-04-16T22:30:06.257Z,98666.22
2023-04-16T22:32:33.564Z,98660.47
2023-04-16T22:35:00.804Z,98667.28
2023-04-16T22:37:27.575Z,98658.81
2023-04-16T22:39:54.390Z,98653.66
2023-04-16T22:42:21.576Z,98655.22
2023-04-16T22:44:48.326Z,98655.47
2023-04-16T22:47:15.272Z,98655.72
2023-04-16T22:49:41.970Z,98650.53
2023-04-16T22:52:08.914Z,98645.37
2023-04-16T22:54:35.686Z,98645.81
2023-04-16T22:57:02.527Z,98646.06
2023-04-16T22:59:29.226Z,98641.47
2023-04-16T23:01:56.121Z,98640.91
2023-04-16T23:04:23.013Z,98639.81
2023-04-16T23:06:49.772Z,98639.50
2023-04-16T23:09:17.054Z,98640.72
2023-04-16T23:11:43.806Z,98629.41
2023-04-16T23:14:10.566Z,98632.34
2023-04-16T23:16:37.338Z,98628.25
2023-04-16T23:19:04.119Z,98624.38
2023-04-16T23:21:31.365Z,98625.19
2023-04-16T23:23:59.204Z,98618.38
2023-04-16T23:26:26.002Z,98614.50
2023-04-16T23:28:52.788Z,98626.88
2023-04-16T23:31:19.553Z,98618.19
2023-04-16T23:33:46.340Z,98622.28
2023-04-16T23:36:13.085Z,98621.13
2023-04-16T23:38:39.936Z,98614.56
2023-04-16T23:41:07.008Z,98619.75
2023-04-16T23:43:35.096Z,98617.50
2023-04-16T23:46:02.744Z,98613.50
2023-04-16T23:48:29.506Z,98618.91
2023-04-16T23:50:56.249Z,98614.31
2023-04-16T23:53:23.075Z,98614.81
2023-04-16T23:55:50.153Z,98607.75
2023-04-16T23:58:16.906Z,98606.34
